Casterton, Victoria

3:03 PM EST on August 20, 2014 (GMT +1000)
Mount Gambier | Change Station
CLOSE
Current Station
Airport
Location: Mount Gambier Airport,
Elevation: 210 ft
Nearby Weather Stations

Elev 210 ft 37.75 °S, 140.79 °E | Updated 1 hour ago

Mostly Cloudy
Mostly Cloudy
55 °F
Feels Like 55 °F
N
8
Wind Variable Wind from SSE

Today
High -- | Low -- °F
--% Chance of Precip.
Yesterday
High -- | Low -- °F
Precip. -- in
7:13 AM 6:03 PM
Waning Crescent, 24% visible
Pressure 30.33 in
Visibility 6.2 miles
Clouds Few 3500 ft
Mostly Cloudy 4500 ft
Dew Point 43 °F
Humidity 63%
Rainfall 0.00 in
Snow Depth Not available.
UV 3 out of 12
Pollen Not available.
Air Quality Not available.
Flu Activity Not available.
METAR YMTG 200400Z 15007KT 9999 FEW035 BKN045 13/06 Q1027

More Conditions Fewer Conditions

Pressure 30.33 in
Visibility 6.2 miles
Clouds Few 3500 ft
Mostly Cloudy 4500 ft
Dew Point 43 °F
Humidity 63%
Rainfall 0.00 in
Snow Depth Not available.
UV 3 out of 12
Pollen Not available.
Air Quality Not available.
Flu Activity Not available.
METAR YMTG 200400Z 15007KT 9999 FEW035 BKN045 13/06 Q1027

More Conditions Fewer Conditions

10-Day Weather Forecast

Almanac

Astronomy

Aug. 20, 2014 Rise Set
Actual Time 7:13 AM EST 6:03 PM EST
Civil Twilight 6:46 AM EST 6:29 PM EST
Nautical Twilight 6:15 AM EST 7:00 PM EST
Astronomical Twilight 5:45 AM EST 7:30 PM EST
Moon 3:10 AM EST 1:28 PM EST
Length of Visible Light 11h 43m
Length of Day
10h 49m
Tomorrow will be 2m 9s longer.
Waning Crescent, 24% of the Moon is Illuminated
Today
Waning Crescent
Aug 25
New
Sep 2
First Quarter
Sep 8
Full
Sep 15
Last Quarter

Yesterday's Extremes

Country Highs Country Lows

Community

WunderPhotos

Upload Photos

1,745,589 photos uploaded!

Nearby

Snow Depth

Not available.

Earthquake Activity

City Distance Mag. Time & Date
No recent earthquake activity has been reported nearby.
Minimum magnitude displayed is 2.5.

Coastal Water Temperatures

Place Temperature
No Stations Reporting

Nearby Weather Stations